Terminal Aerodrome Forecast
Issued by NWS Pueblo, CO

Home | Current Version | Previous Version | Text Only | Print | Product List | Glossary On
Versions: 1 2 3 4 5 6 7 8 9 10 11 12 13 14 15 16 17
000
FTUS45 KPUB 200833 AAA
TAFPUB
TAF AMD
KPUB 200833Z 2009/2106 VRB05G15KT P6SM BKN050 OVC100
      TEMPO 2009/2013 -SHRA BKN035
     FM201800 03012KT P6SM VCSH SCT030 BKN070
     FM210300 VRB06KT P6SM FEW070 SCT150=

USA.gov is the U.S. government's official web portal to all federal, state and local government web resources and services.